createdAt,value
2023-04-10T00:00:37.999Z,13.90
2023-04-10T00:03:05.212Z,13.90
2023-04-10T00:05:32.726Z,12.87
2023-04-10T00:07:59.717Z,14.00
2023-04-10T00:10:29.347Z,12.50
2023-04-10T00:12:56.442Z,12.20
2023-04-10T00:15:23.713Z,12.63
2023-04-10T00:17:55.042Z,13.40
2023-04-10T00:20:26.242Z,14.60
2023-04-10T00:22:53.232Z,13.00
2023-04-10T00:25:20.464Z,12.77
2023-04-10T00:27:47.385Z,12.60
2023-04-10T00:30:14.399Z,13.80
2023-04-10T00:32:41.412Z,13.90
2023-04-10T00:35:09.162Z,13.50
2023-04-10T00:37:36.592Z,12.83
2023-04-10T00:40:04.602Z,13.57
2023-04-10T00:42:31.829Z,14.30
2023-04-10T00:44:59.750Z,13.10
2023-04-10T00:47:28.552Z,15.97
2023-04-10T00:49:55.753Z,14.77
2023-04-10T00:52:24.147Z,15.40
2023-04-10T00:54:51.266Z,15.13
2023-04-10T00:57:18.208Z,15.27
2023-04-10T00:59:45.394Z,16.17
2023-04-10T01:02:13.299Z,15.77
2023-04-10T01:04:41.149Z,14.60
2023-04-10T01:07:39.004Z,14.20
2023-04-10T01:10:24.852Z,14.67
2023-04-10T01:13:09.136Z,15.00
2023-04-10T01:15:47.711Z,13.30
2023-04-10T01:18:33.454Z,13.70
2023-04-10T01:21:05.277Z,14.13
2023-04-10T01:24:10.671Z,13.80
2023-04-10T01:27:01.633Z,13.67
2023-04-10T01:29:30.869Z,14.67
2023-04-10T01:32:11.548Z,13.10
2023-04-10T01:34:46.296Z,14.20
2023-04-10T01:37:23.783Z,12.70
2023-04-10T01:39:59.086Z,14.03
2023-04-10T01:42:31.166Z,13.03
2023-04-10T01:44:59.880Z,12.23
2023-04-10T01:47:27.980Z,13.97
2023-04-10T01:49:57.626Z,13.93
2023-04-10T01:52:26.585Z,14.03
2023-04-10T01:54:54.331Z,14.13
2023-04-10T01:57:22.095Z,13.30
2023-04-10T01:59:50.256Z,12.60
2023-04-10T02:02:17.417Z,13.77
2023-04-10T02:04:46.948Z,14.07
2023-04-10T02:07:41.647Z,11.93
2023-04-10T02:10:13.330Z,12.33
2023-04-10T02:12:50.657Z,12.50
2023-04-10T02:15:21.817Z,11.97
2023-04-10T02:17:50.075Z,12.47
2023-04-10T02:20:18.672Z,13.03
2023-04-10T02:22:46.528Z,13.90
2023-04-10T02:25:13.720Z,10.70
2023-04-10T02:27:41.005Z,11.27
2023-04-10T02:30:08.868Z,12.90
2023-04-10T02:32:36.945Z,11.50
2023-04-10T02:35:04.828Z,12.73
2023-04-10T02:37:32.857Z,11.57
2023-04-10T02:39:59.943Z,11.03
2023-04-10T02:42:27.192Z,13.00
2023-04-10T02:44:54.122Z,11.87
2023-04-10T02:47:21.153Z,12.50
2023-04-10T02:49:48.646Z,11.30
2023-04-10T02:52:16.518Z,12.90
2023-04-10T02:54:43.591Z,13.00
2023-04-10T02:57:10.812Z,13.60
2023-04-10T02:59:37.743Z,12.87
2023-04-10T03:02:04.758Z,12.77
2023-04-10T03:04:35.040Z,11.43
2023-04-10T03:07:02.262Z,11.77
2023-04-10T03:09:29.260Z,12.47
2023-04-10T03:11:56.266Z,11.43
2023-04-10T03:14:23.406Z,12.90
2023-04-10T03:16:50.517Z,12.63
2023-04-10T03:19:17.504Z,12.40
2023-04-10T03:21:45.749Z,13.10
2023-04-10T03:24:12.962Z,13.27
2023-04-10T03:26:43.369Z,13.43
2023-04-10T03:29:10.432Z,12.57
2023-04-10T03:31:37.446Z,11.80
2023-04-10T03:34:04.612Z,13.00
2023-04-10T03:36:31.623Z,12.67
2023-04-10T03:38:58.495Z,11.87
2023-04-10T03:41:25.818Z,12.83
2023-04-10T03:43:53.201Z,12.60
2023-04-10T03:46:20.396Z,11.90
2023-04-10T03:48:47.356Z,13.13
2023-04-10T03:51:14.294Z,12.43
2023-04-10T03:53:41.297Z,12.97
2023-04-10T03:56:08.899Z,14.27
2023-04-10T03:58:35.815Z,11.97
2023-04-10T04:01:02.844Z,13.07
2023-04-10T04:03:29.991Z,12.67
2023-04-10T04:05:57.126Z,12.80
2023-04-10T04:08:24.144Z,11.50
2023-04-10T04:10:51.116Z,13.50
2023-04-10T04:13:17.977Z,11.13
2023-04-10T04:15:44.907Z,11.80
2023-04-10T04:18:12.012Z,13.33
2023-04-10T04:20:38.953Z,13.60
2023-04-10T04:23:05.949Z,11.27
2023-04-10T04:25:32.970Z,11.73
2023-04-10T04:27:59.934Z,13.60
2023-04-10T04:30:26.977Z,14.13
2023-04-10T04:32:53.992Z,13.23
2023-04-10T04:35:21.632Z,16.00
2023-04-10T04:37:48.618Z,16.30
2023-04-10T04:40:16.007Z,16.53
2023-04-10T04:42:42.995Z,14.23
2023-04-10T04:45:10.670Z,15.50
2023-04-10T04:47:37.637Z,15.03
2023-04-10T04:50:05.329Z,18.17
2023-04-10T04:52:32.243Z,16.07
2023-04-10T04:54:59.215Z,17.70
2023-04-10T04:57:26.088Z,18.20
2023-04-10T04:59:53.268Z,19.90
2023-04-10T05:02:22.501Z,17.00
2023-04-10T05:04:49.692Z,20.97
2023-04-10T05:07:16.693Z,20.60
2023-04-10T05:09:43.754Z,22.30
2023-04-10T05:12:10.656Z,22.53
2023-04-10T05:14:37.523Z,22.70
2023-04-10T05:17:04.508Z,21.10
2023-04-10T05:19:31.409Z,21.00
2023-04-10T05:21:58.390Z,22.93
2023-04-10T05:24:25.652Z,21.73
2023-04-10T05:26:52.640Z,21.93
2023-04-10T05:29:19.590Z,21.60
2023-04-10T05:31:47.025Z,19.60
2023-04-10T05:34:13.876Z,21.47
2023-04-10T05:36:40.729Z,19.47
2023-04-10T05:39:07.627Z,17.30
2023-04-10T05:41:34.481Z,18.33
2023-04-10T05:44:01.328Z,17.70
2023-04-10T05:46:28.303Z,16.37
2023-04-10T05:48:55.758Z,15.10
2023-04-10T05:51:22.872Z,13.70
2023-04-10T05:53:50.965Z,14.97
2023-04-10T05:56:17.887Z,13.30
2023-04-10T05:58:44.828Z,13.33
2023-04-10T06:01:13.653Z,12.20
2023-04-10T06:03:40.708Z,19.87
2023-04-10T06:06:08.433Z,14.47
2023-04-10T06:08:35.624Z,12.60
2023-04-10T06:11:02.737Z,13.87
2023-04-10T06:13:29.771Z,13.93
2023-04-10T06:15:56.782Z,11.90
2023-04-10T06:18:23.767Z,13.40
2023-04-10T06:20:50.820Z,13.73
2023-04-10T06:23:17.829Z,13.30
2023-04-10T06:25:44.908Z,13.87
2023-04-10T06:28:11.929Z,13.67
2023-04-10T06:30:38.888Z,12.10
2023-04-10T06:33:05.914Z,11.77
2023-04-10T06:35:33.040Z,11.00
2023-04-10T06:37:59.975Z,12.30
2023-04-10T06:40:29.475Z,12.13
2023-04-10T06:42:57.278Z,11.57
2023-04-10T06:45:24.270Z,11.13
2023-04-10T06:47:51.728Z,12.93
2023-04-10T06:50:18.744Z,11.43
2023-04-10T06:52:46.166Z,22.60
2023-04-10T06:55:13.029Z,15.10
2023-04-10T06:57:42.497Z,11.10
2023-04-10T07:00:10.396Z,23.97
2023-04-10T07:02:37.342Z,44.63
2023-04-10T07:05:04.574Z,23.43
2023-04-10T07:07:31.545Z,12.93
2023-04-10T07:09:58.604Z,11.77
2023-04-10T07:12:25.660Z,11.83
2023-04-10T07:14:52.608Z,11.23
2023-04-10T07:17:19.486Z,10.90
2023-04-10T07:19:46.319Z,10.27
2023-04-10T07:22:13.328Z,10.77
2023-04-10T07:24:40.285Z,10.77
2023-04-10T07:27:07.230Z,12.70
2023-04-10T07:29:34.330Z,11.63
2023-04-10T07:32:01.371Z,12.63
2023-04-10T07:34:28.434Z,11.13
2023-04-10T07:36:55.391Z,12.33
2023-04-10T07:39:22.264Z,36.90
2023-04-10T07:41:49.277Z,19.60
2023-04-10T07:44:17.640Z,17.87
2023-04-10T07:46:44.558Z,15.53
2023-04-10T07:49:12.205Z,15.50
2023-04-10T07:51:39.156Z,18.27
2023-04-10T07:54:06.070Z,14.03
2023-04-10T07:56:32.959Z,14.23
2023-04-10T07:59:03.425Z,11.60
2023-04-10T08:01:30.387Z,12.33
2023-04-10T08:03:57.879Z,12.30
2023-04-10T08:06:25.089Z,12.50
2023-04-10T08:08:54.966Z,12.80
2023-04-10T08:11:28.238Z,11.70
2023-04-10T08:14:03.976Z,11.33
2023-04-10T08:16:33.331Z,11.87
2023-04-10T08:19:01.493Z,12.27
2023-04-10T08:21:31.644Z,12.03
2023-04-10T08:24:01.781Z,13.00
2023-04-10T08:26:29.828Z,11.77
2023-04-10T08:28:58.976Z,13.27
2023-04-10T08:31:28.240Z,12.30
2023-04-10T08:33:56.120Z,16.47
2023-04-10T08:36:23.196Z,46.20
2023-04-10T08:38:50.170Z,27.23
2023-04-10T08:41:19.041Z,14.90
2023-04-10T08:43:46.879Z,14.53
2023-04-10T08:46:15.075Z,14.70
2023-04-10T08:49:04.647Z,13.90
2023-04-10T08:51:59.284Z,14.57
2023-04-10T08:54:29.684Z,14.17
2023-04-10T08:56:58.761Z,13.80
2023-04-10T08:59:26.051Z,13.10
2023-04-10T09:01:53.568Z,12.90
2023-04-10T09:04:21.357Z,15.07
2023-04-10T09:06:48.341Z,13.50
2023-04-10T09:09:15.182Z,11.77
2023-04-10T09:11:56.946Z,7.90
2023-04-10T09:14:32.577Z,6.70
2023-04-10T09:17:24.310Z,7.20
2023-04-10T09:19:56.282Z,7.80
2023-04-10T09:22:32.552Z,7.80
2023-04-10T09:25:00.990Z,8.13
2023-04-10T09:27:35.226Z,8.10
2023-04-10T09:30:03.236Z,8.40
2023-04-10T09:32:46.536Z,7.97
2023-04-10T09:35:15.931Z,8.17
2023-04-10T09:37:45.645Z,8.50
2023-04-10T09:40:26.826Z,9.57
2023-04-10T09:42:56.307Z,8.47
2023-04-10T09:45:23.233Z,8.13
2023-04-10T09:48:08.149Z,8.63
2023-04-10T09:50:43.528Z,8.80
2023-04-10T09:53:16.558Z,8.83
2023-04-10T09:55:44.195Z,7.53
2023-04-10T09:58:12.172Z,10.17
2023-04-10T10:00:47.879Z,15.70
2023-04-10T10:03:21.402Z,13.80
2023-04-10T10:05:51.014Z,9.63
2023-04-10T10:08:18.557Z,8.50
2023-04-10T10:10:52.036Z,8.03
2023-04-10T10:13:38.184Z,8.30
2023-04-10T10:16:58.886Z,8.73
2023-04-10T10:19:54.676Z,7.93
2023-04-10T10:22:25.999Z,9.70
2023-04-10T10:24:56.738Z,8.57
2023-04-10T10:27:25.404Z,9.80
2023-04-10T10:29:55.410Z,16.97
2023-04-10T10:32:24.137Z,10.53
2023-04-10T10:34:53.509Z,8.27
2023-04-10T10:37:23.572Z,8.97
2023-04-10T10:40:02.142Z,8.40
2023-04-10T10:42:41.438Z,8.77
2023-04-10T10:45:17.444Z,9.00
2023-04-10T10:47:54.985Z,17.47
2023-04-10T10:50:24.274Z,12.07
2023-04-10T10:52:57.503Z,9.10
2023-04-10T10:55:36.951Z,8.53
2023-04-10T10:58:09.145Z,8.63
2023-04-10T11:00:51.344Z,7.57
2023-04-10T11:03:18.338Z,8.33
2023-04-10T11:06:19.686Z,8.03
2023-04-10T11:08:49.373Z,8.30
2023-04-10T11:11:23.460Z,8.00
2023-04-10T11:13:52.104Z,8.03
2023-04-10T11:16:20.822Z,8.83
2023-04-10T11:18:59.463Z,8.93
2023-04-10T11:22:01.129Z,8.87
2023-04-10T11:24:29.227Z,8.67
2023-04-10T11:26:56.875Z,9.13
2023-04-10T11:29:31.395Z,10.20
2023-04-10T11:32:01.364Z,14.90
2023-04-10T11:34:30.760Z,14.00
2023-04-10T11:36:57.751Z,7.80
2023-04-10T11:39:27.779Z,7.67
2023-04-10T11:41:58.290Z,9.23
2023-04-10T11:44:35.454Z,9.90
2023-04-10T11:47:02.792Z,8.27
2023-04-10T11:49:34.673Z,7.73
2023-04-10T11:52:01.802Z,7.50
2023-04-10T11:54:29.911Z,7.20
2023-04-10T11:57:12.937Z,7.00
2023-04-10T11:59:39.910Z,6.53
2023-04-10T12:02:09.837Z,7.53
2023-04-10T12:04:37.502Z,7.10
2023-04-10T12:07:04.819Z,6.30
2023-04-10T12:09:31.826Z,6.90
2023-04-10T12:12:04.676Z,6.77
2023-04-10T12:14:40.781Z,6.40
2023-04-10T12:17:10.649Z,6.20
2023-04-10T12:19:39.636Z,6.83
2023-04-10T12:22:07.785Z,6.20
2023-04-10T12:24:51.313Z,5.60
2023-04-10T12:27:28.655Z,6.73
2023-04-10T12:29:58.466Z,5.87
2023-04-10T12:32:27.419Z,6.70
2023-04-10T12:35:03.350Z,6.97
2023-04-10T12:37:50.417Z,6.47
2023-04-10T12:40:18.276Z,6.57
2023-04-10T12:42:45.239Z,7.00
2023-04-10T12:45:14.147Z,7.37
2023-04-10T12:47:59.604Z,7.47
2023-04-10T12:50:27.267Z,7.70
2023-04-10T12:53:11.660Z,7.90
2023-04-10T12:55:38.754Z,7.80
2023-04-10T12:58:21.286Z,7.40
2023-04-10T13:00:48.779Z,7.70
2023-04-10T13:03:15.957Z,7.63
2023-04-10T13:05:43.141Z,7.27
2023-04-10T13:08:10.037Z,7.07
2023-04-10T13:10:38.383Z,7.10
2023-04-10T13:13:07.201Z,7.80
2023-04-10T13:15:34.857Z,7.33
2023-04-10T13:18:03.712Z,6.60
2023-04-10T13:20:36.210Z,6.50
2023-04-10T13:23:04.031Z,6.40
2023-04-10T13:25:33.637Z,9.50
2023-04-10T13:28:10.010Z,9.80
2023-04-10T13:30:40.110Z,13.20
2023-04-10T13:33:08.578Z,8.37
2023-04-10T13:35:35.577Z,7.97
2023-04-10T13:38:02.658Z,7.40
2023-04-10T13:40:29.876Z,7.70
2023-04-10T13:42:56.977Z,8.13
2023-04-10T13:45:23.941Z,8.10
2023-04-10T13:47:50.899Z,7.23
2023-04-10T13:50:18.197Z,8.10
2023-04-10T13:52:45.359Z,6.93
2023-04-10T13:55:12.268Z,7.27
2023-04-10T13:57:39.316Z,7.10
2023-04-10T14:00:07.553Z,7.23
2023-04-10T14:02:34.725Z,7.40
2023-04-10T14:05:01.744Z,6.63
2023-04-10T14:07:28.705Z,7.23
2023-04-10T14:09:55.735Z,7.03
2023-04-10T14:12:23.577Z,6.30
2023-04-10T14:14:50.589Z,6.63
2023-04-10T14:17:17.688Z,5.70
2023-04-10T14:19:46.448Z,6.67
2023-04-10T14:22:13.526Z,6.67
2023-04-10T14:24:40.426Z,6.17
2023-04-10T14:27:07.356Z,6.23
2023-04-10T14:29:38.859Z,5.83
2023-04-10T14:32:06.303Z,6.17
2023-04-10T14:34:33.352Z,6.20
2023-04-10T14:37:00.544Z,5.87
2023-04-10T14:39:27.456Z,6.27
2023-04-10T14:41:54.411Z,6.20
2023-04-10T14:44:21.386Z,6.23
2023-04-10T14:46:48.317Z,6.63
2023-04-10T14:49:15.427Z,6.83
2023-04-10T14:51:45.966Z,6.30
2023-04-10T14:54:12.985Z,7.80
2023-04-10T14:56:40.092Z,8.27
2023-04-10T14:59:07.122Z,7.30
2023-04-10T15:01:35.825Z,6.40
2023-04-10T15:04:03.049Z,7.13
2023-04-10T15:06:32.317Z,6.30
2023-04-10T15:08:59.404Z,6.10
2023-04-10T15:11:26.728Z,6.20
2023-04-10T15:13:53.851Z,5.70
2023-04-10T15:16:21.243Z,5.13
2023-04-10T15:18:49.400Z,6.40
2023-04-10T15:21:17.486Z,6.30
2023-04-10T15:23:44.770Z,6.40
2023-04-10T15:26:16.026Z,5.50
2023-04-10T15:28:43.380Z,5.97
2023-04-10T15:31:11.467Z,6.43
2023-04-10T15:33:39.970Z,5.40
2023-04-10T15:36:08.482Z,6.13
2023-04-10T15:38:36.273Z,6.90
2023-04-10T15:41:10.902Z,6.10
2023-04-10T15:43:38.446Z,6.77
2023-04-10T15:46:05.985Z,6.77
2023-04-10T15:48:33.039Z,7.07
2023-04-10T15:51:05.424Z,6.60
2023-04-10T15:53:32.893Z,6.27
2023-04-10T15:55:59.940Z,7.00
2023-04-10T15:58:27.315Z,6.07
2023-04-10T16:00:54.355Z,7.00
2023-04-10T16:03:21.416Z,6.73
2023-04-10T16:05:48.495Z,6.33
2023-04-10T16:08:15.852Z,6.37
2023-04-10T16:10:42.776Z,7.83
2023-04-10T16:13:09.721Z,6.83
2023-04-10T16:15:38.305Z,7.00
2023-04-10T16:18:07.612Z,6.30
2023-04-10T16:20:34.892Z,7.67
2023-04-10T16:23:02.051Z,7.77
2023-04-10T16:25:29.132Z,9.60
2023-04-10T16:27:56.044Z,6.80
2023-04-10T16:30:23.775Z,6.90
2023-04-10T16:32:51.365Z,7.33
2023-04-10T16:35:19.277Z,6.50
2023-04-10T16:37:46.609Z,6.73
2023-04-10T16:40:13.909Z,6.60
2023-04-10T16:42:42.730Z,7.00
2023-04-10T16:45:10.343Z,7.30
2023-04-10T16:47:38.186Z,7.17
2023-04-10T16:50:06.484Z,7.07
2023-04-10T16:52:33.486Z,9.40
2023-04-10T16:55:00.455Z,12.73
2023-04-10T16:57:27.529Z,16.20
2023-04-10T17:00:00.290Z,8.20
2023-04-10T17:02:28.272Z,7.70
2023-04-10T17:04:56.183Z,7.60
2023-04-10T17:07:23.833Z,6.80
2023-04-10T17:09:51.633Z,8.00
2023-04-10T17:12:18.758Z,9.87
2023-04-10T17:14:45.798Z,10.10
2023-04-10T17:17:12.893Z,8.47
2023-04-10T17:19:39.853Z,8.70
2023-04-10T17:22:15.856Z,8.00
2023-04-10T17:24:44.554Z,8.47
2023-04-10T17:27:13.352Z,8.70
2023-04-10T17:29:41.183Z,7.80
2023-04-10T17:32:09.446Z,9.50
2023-04-10T17:34:36.508Z,8.70
2023-04-10T17:37:03.500Z,9.80
2023-04-10T17:39:30.655Z,10.37
2023-04-10T17:41:57.613Z,10.73
2023-04-10T17:44:24.650Z,9.20
2023-04-10T17:46:53.582Z,9.37
2023-04-10T17:49:23.744Z,9.03
2023-04-10T17:51:50.905Z,8.87
2023-04-10T17:54:17.825Z,10.17
2023-04-10T17:56:44.817Z,9.87
2023-04-10T17:59:11.741Z,8.70
2023-04-10T18:01:38.814Z,9.50
2023-04-10T18:04:05.960Z,9.23
2023-04-10T18:06:33.019Z,10.43
2023-04-10T18:09:00.006Z,9.60
2023-04-10T18:11:27.242Z,10.07
2023-04-10T18:13:54.156Z,10.70
2023-04-10T18:16:21.117Z,10.70
2023-04-10T18:18:48.092Z,10.10
2023-04-10T18:21:15.464Z,10.27
2023-04-10T18:23:44.465Z,9.20
2023-04-10T18:26:12.474Z,8.53
2023-04-10T18:28:39.554Z,9.13
2023-04-10T18:31:07.337Z,10.33
2023-04-10T18:33:34.369Z,9.43
2023-04-10T18:36:01.327Z,10.97
2023-04-10T18:38:29.880Z,9.47
2023-04-10T18:40:57.549Z,11.97
2023-04-10T18:43:25.659Z,10.87
2023-04-10T18:45:52.915Z,10.30
2023-04-10T18:48:19.856Z,9.90
2023-04-10T18:50:46.825Z,9.00
2023-04-10T18:53:13.775Z,11.00
2023-04-10T18:55:40.701Z,9.23
2023-04-10T18:58:07.728Z,9.60
2023-04-10T19:00:34.646Z,10.27
2023-04-10T19:03:01.666Z,10.17
2023-04-10T19:05:32.629Z,10.50
2023-04-10T19:08:04.709Z,11.67
2023-04-10T19:10:33.017Z,12.40
2023-04-10T19:12:59.919Z,11.57
2023-04-10T19:15:26.948Z,10.53
2023-04-10T19:17:54.796Z,12.10
2023-04-10T19:20:52.534Z,10.47
2023-04-10T19:23:09.684Z,12.40
2023-04-10T19:25:36.617Z,10.50
2023-04-10T19:28:04.379Z,11.07
2023-04-10T19:30:31.335Z,10.80
2023-04-10T19:32:58.433Z,10.67
2023-04-10T19:35:25.651Z,11.10
2023-04-10T19:37:56.564Z,12.37
2023-04-10T19:40:23.613Z,12.63
2023-04-10T19:42:50.847Z,11.30
2023-04-10T19:45:17.994Z,11.10
2023-04-10T19:47:45.038Z,29.47
2023-04-10T19:50:12.035Z,29.67
2023-04-10T19:52:38.937Z,17.00
2023-04-10T19:55:06.415Z,15.03
2023-04-10T19:57:33.266Z,14.27
2023-04-10T20:00:00.223Z,14.73
2023-04-10T20:02:27.317Z,16.30
2023-04-10T20:04:54.239Z,16.53
2023-04-10T20:07:21.208Z,15.03
2023-04-10T20:09:48.147Z,16.80
2023-04-10T20:12:16.330Z,15.73
2023-04-10T20:14:45.857Z,15.17
2023-04-10T20:17:12.904Z,16.47
2023-04-10T20:19:40.273Z,15.20
2023-04-10T20:22:08.739Z,15.20
2023-04-10T20:24:36.817Z,14.07
2023-04-10T20:27:03.992Z,14.53
2023-04-10T20:29:30.983Z,13.50
2023-04-10T20:31:58.047Z,13.20
2023-04-10T20:34:25.058Z,11.17
2023-04-10T20:36:51.933Z,11.50
2023-04-10T20:39:19.008Z,10.43
2023-04-10T20:41:45.955Z,11.23
2023-04-10T20:44:12.878Z,11.30
2023-04-10T20:46:40.219Z,10.77
2023-04-10T20:49:07.338Z,9.37
2023-04-10T20:51:37.127Z,10.00
2023-04-10T20:54:06.184Z,10.43
2023-04-10T20:56:40.571Z,11.60
2023-04-10T20:59:11.189Z,9.63
2023-04-10T21:01:38.641Z,10.17
2023-04-10T21:04:06.233Z,10.50
2023-04-10T21:06:33.694Z,10.47
2023-04-10T21:09:00.803Z,11.07
2023-04-10T21:11:27.881Z,11.10
2023-04-10T21:13:54.758Z,10.37
2023-04-10T21:16:21.724Z,9.53
2023-04-10T21:18:49.426Z,9.67
2023-04-10T21:21:16.553Z,13.10
2023-04-10T21:23:43.522Z,11.73
2023-04-10T21:26:10.647Z,13.17
2023-04-10T21:28:37.523Z,14.40
2023-04-10T21:31:04.626Z,13.63
2023-04-10T21:33:33.669Z,16.87
2023-04-10T21:36:00.962Z,18.47
2023-04-10T21:38:28.277Z,18.60
2023-04-10T21:40:55.227Z,18.43
2023-04-10T21:43:22.381Z,16.47
2023-04-10T21:45:49.432Z,17.30
2023-04-10T21:48:16.604Z,15.70
2023-04-10T21:50:43.473Z,16.83
2023-04-10T21:53:10.458Z,18.83
2023-04-10T21:55:37.397Z,20.20
2023-04-10T21:58:04.777Z,17.87
2023-04-10T22:00:33.182Z,17.17
2023-04-10T22:03:00.296Z,21.50
2023-04-10T22:05:27.632Z,21.10
2023-04-10T22:07:55.199Z,20.27
2023-04-10T22:10:22.094Z,24.83
2023-04-10T22:12:49.492Z,24.30
2023-04-10T22:15:17.175Z,23.87
2023-04-10T22:17:44.242Z,22.87
2023-04-10T22:20:11.393Z,21.40
2023-04-10T22:22:38.475Z,23.10
2023-04-10T22:25:06.165Z,23.30
2023-04-10T22:27:33.459Z,25.23
2023-04-10T22:30:03.981Z,24.00
2023-04-10T22:32:32.192Z,15.63
2023-04-10T22:34:59.843Z,11.10
2023-04-10T22:37:27.577Z,11.13
2023-04-10T22:39:55.979Z,11.30
2023-04-10T22:42:23.589Z,11.90
2023-04-10T22:44:50.598Z,10.80
2023-04-10T22:47:17.877Z,10.43
2023-04-10T22:49:45.419Z,9.40
2023-04-10T22:52:13.528Z,9.10
2023-04-10T22:54:40.423Z,9.53
2023-04-10T22:57:07.799Z,10.77
2023-04-10T22:59:38.184Z,12.60
2023-04-10T23:02:05.612Z,13.77
2023-04-10T23:04:32.727Z,11.83
2023-04-10T23:06:59.715Z,12.53
2023-04-10T23:09:26.776Z,11.60
2023-04-10T23:11:53.724Z,13.57
2023-04-10T23:14:20.870Z,13.40
2023-04-10T23:16:47.874Z,12.57
2023-04-10T23:19:14.889Z,13.27
2023-04-10T23:21:41.881Z,12.47
2023-04-10T23:24:08.793Z,13.53
2023-04-10T23:26:35.728Z,12.80
2023-04-10T23:29:02.698Z,13.23
2023-04-10T23:31:29.682Z,12.63
2023-04-10T23:33:56.625Z,11.80
2023-04-10T23:36:23.493Z,12.00
2023-04-10T23:38:50.403Z,12.97
2023-04-10T23:41:17.353Z,11.90
2023-04-10T23:43:44.769Z,12.90
2023-04-10T23:46:11.832Z,11.80
2023-04-10T23:48:38.846Z,11.97
2023-04-10T23:51:09.349Z,11.47
2023-04-10T23:53:36.342Z,12.10
2023-04-10T23:56:03.281Z,12.10
2023-04-10T23:58:30.178Z,10.87
